Gough Island, South Africa
Current Conditions -  °F | °C
As of 8:00 AM on Friday 31 Oct 2014 (Local Time) from FACT Reporting Station
Clear Clear  
Wind Chill: 64°   Ceiling: Unl
Heat Index: 64°   Visibility: 6mi
Dew Point: 43°   Wind: 7mph
Humidity: 45%   Direction: 110°ESE
Pressure: 30.09"   Gusts: NA
Location:  40.35°S, 9.88°W
Report Text: FACT 310600Z 11006KT 100V170 CAVOK 18/06 Q1019 NOSIG
Loading
Personal Weather Stations






























Interactive Weather Map New forecast layout! Learn more

10-Day Weather Forecast

Advertisements
Track Severe Weather on mobile